Time;durP1;ratioP1;P1;durP2;ratioP2;P2;SDS_P1;SDS_P2;PMS_P1;PMS_P2;Temp;Humidity;BMP_temperature;BMP_pressure;BME280_temperature;BME280_humidity;BME280_pressure;Samples;Min_cycle;Max_cycle;Signal;HPM_P1;HPM_P2
2020/12/11 00:00:21;;;;;;;1.40;0.10;;;;;;;3.78;100.00;100038.38;4967567;28;20214;-77
2020/12/11 00:02:46;;;;;;;2.00;0.43;;;;;;;3.73;100.00;100033.25;4971699;28;20495;-78
2020/12/11 00:05:12;;;;;;;1.83;0.40;;;;;;;3.56;100.00;100034.91;4971571;28;20457;-77
2020/12/11 00:07:39;;;;;;;3.00;0.40;;;;;;;3.66;100.00;100042.53;4971322;28;20204;-78
2020/12/11 00:10:06;;;;;;;2.57;0.70;;;;;;;3.50;100.00;100040.78;4970150;28;20511;-78
2020/12/11 00:12:32;;;;;;;2.20;0.50;;;;;;;3.46;100.00;100037.19;4968018;28;20452;-77
2020/12/11 00:14:59;;;;;;;3.30;0.50;;;;;;;3.60;100.00;100029.75;4972459;28;20432;-78
2020/12/11 00:17:26;;;;;;;2.20;0.40;;;;;;;3.74;100.00;100021.47;4964374;28;20265;-78
2020/12/11 00:19:55;;;;;;;2.10;0.40;;;;;;;3.55;100.00;100022.72;4970989;28;20472;-78
2020/12/11 00:22:22;;;;;;;3.70;0.70;;;;;;;3.55;100.00;100004.09;4964797;28;20588;-77
2020/12/11 00:24:48;;;;;;;2.53;0.73;;;;;;;3.67;100.00;100014.81;4969199;28;20860;-78
2020/12/11 00:27:14;;;;;;;2.50;0.60;;;;;;;3.75;100.00;100015.84;4969564;28;20551;-77
2020/12/11 00:29:39;;;;;;;1.90;0.50;;;;;;;3.79;100.00;100010.66;4981328;28;20502;-78
2020/12/11 00:32:05;;;;;;;1.70;0.30;;;;;;;3.73;100.00;100001.31;5011378;28;20195;-77
2020/12/11 00:34:31;;;;;;;1.50;0.40;;;;;;;3.53;100.00;100008.19;4996956;28;20599;-77
2020/12/11 00:36:57;;;;;;;2.53;0.50;;;;;;;3.60;100.00;99997.81;5022356;28;20243;-78
2020/12/11 00:39:22;;;;;;;1.47;0.30;;;;;;;3.76;100.00;99996.09;5013389;28;20465;-79
2020/12/11 00:41:48;;;;;;;1.83;0.30;;;;;;;3.83;100.00;99993.72;5011703;28;20209;-78
2020/12/11 00:44:14;;;;;;;2.13;0.40;;;;;;;3.83;100.00;99996.38;4999489;28;20675;-78
2020/12/11 00:46:39;;;;;;;2.43;0.83;;;;;;;3.66;100.00;99991.16;5012275;28;20420;-78
2020/12/11 00:49:05;;;;;;;3.30;0.60;;;;;;;3.52;100.00;99988.75;5007066;28;20184;-78
2020/12/11 00:51:30;;;;;;;2.40;0.53;;;;;;;3.46;100.00;99987.41;5010572;28;20211;-78
2020/12/11 00:53:56;;;;;;;2.13;0.47;;;;;;;3.63;100.00;99991.81;4996586;28;20208;-77
2020/12/11 00:56:23;;;;;;;4.77;1.07;;;;;;;3.59;100.00;99982.94;5010166;28;21011;-78
2020/12/11 00:58:49;;;;;;;2.00;0.50;;;;;;;3.68;100.00;99976.44;5007941;28;20469;-78
2020/12/11 01:01:15;;;;;;;3.37;0.90;;;;;;;3.79;100.00;99976.03;5006652;28;20883;-78
2020/12/11 01:03:40;;;;;;;2.80;0.40;;;;;;;3.71;100.00;99977.69;5010661;28;20440;-78
2020/12/11 01:06:05;;;;;;;2.10;0.33;;;;;;;3.79;100.00;99973.38;4997477;28;20292;-78
2020/12/11 01:08:31;;;;;;;2.67;0.60;;;;;;;3.72;100.00;99981.13;5010670;28;20671;-77
2020/12/11 01:10:57;;;;;;;3.53;0.60;;;;;;;3.77;100.00;99971.06;5004879;28;20212;-77
2020/12/11 01:13:22;;;;;;;4.13;0.77;;;;;;;3.74;100.00;99965.56;5016132;28;20196;-78
2020/12/11 01:15:48;;;;;;;1.60;0.37;;;;;;;3.74;100.00;99966.38;5011344;28;20246;-78
2020/12/11 01:18:13;;;;;;;2.47;0.30;;;;;;;3.84;100.00;99967.84;5011264;28;20287;-76
2020/12/11 01:20:39;;;;;;;3.70;0.70;;;;;;;3.85;100.00;99964.09;5007172;28;20305;-78
2020/12/11 01:23:04;;;;;;;3.07;0.50;;;;;;;3.70;100.00;99965.47;5015328;28;20178;-77
2020/12/11 01:25:30;;;;;;;5.20;0.80;;;;;;;3.68;100.00;99960.47;5024550;28;20186;-78
2020/12/11 01:27:55;;;;;;;4.50;0.97;;;;;;;3.55;100.00;99964.19;5011055;28;20187;-79
2020/12/11 01:30:21;;;;;;;2.90;0.57;;;;;;;3.58;100.00;99952.88;5009263;28;20251;-79
2020/12/11 01:32:46;;;;;;;1.67;0.20;;;;;;;3.58;100.00;99942.22;5010452;28;20183;-78
2020/12/11 01:35:12;;;;;;;2.77;0.40;;;;;;;3.59;100.00;99953.66;5009369;28;20212;-78
2020/12/11 01:37:37;;;;;;;2.70;0.53;;;;;;;3.60;100.00;99937.34;4988136;28;20182;-77
2020/12/11 01:40:04;;;;;;;2.37;0.37;;;;;;;3.54;100.00;99936.00;5021379;28;20679;-77
2020/12/11 01:42:30;;;;;;;2.60;0.77;;;;;;;3.32;100.00;99928.34;4996916;28;20640;-77
2020/12/11 01:44:56;;;;;;;1.97;0.33;;;;;;;3.48;100.00;99929.31;5022801;28;20439;-77
2020/12/11 01:47:21;;;;;;;2.13;0.40;;;;;;;3.55;100.00;99926.91;5010570;28;20860;-78
2020/12/11 01:49:48;;;;;;;3.20;0.60;;;;;;;3.67;100.00;99916.34;4995331;28;20211;-77
2020/12/11 01:52:18;;;;;;;3.53;1.03;;;;;;;3.58;100.00;99923.59;5003202;28;20964;-78
2020/12/11 01:54:45;;;;;;;2.07;0.20;;;;;;;3.48;100.00;99925.88;5023466;28;20448;-77
2020/12/11 01:57:21;;;;;;;1.80;0.33;;;;;;;3.59;100.00;99913.72;5009338;28;20883;-77
2020/12/11 01:59:52;;;;;;;2.13;0.50;;;;;;;3.64;100.00;99922.28;5007750;28;20475;-77
2020/12/11 02:02:20;;;;;;;2.37;0.30;;;;;;;3.75;100.00;99909.38;5003112;28;20467;-77
2020/12/11 02:04:46;;;;;;;3.00;0.40;;;;;;;3.65;100.00;99912.44;5006161;28;20518;-77
2020/12/11 02:07:11;;;;;;;3.43;0.60;;;;;;;3.54;100.00;99917.38;4982721;28;20447;-79
2020/12/11 02:09:38;;;;;;;1.67;0.27;;;;;;;3.58;100.00;99910.28;4985429;28;20458;-77
2020/12/11 02:12:24;;;;;;;2.07;0.40;;;;;;;3.57;100.00;99903.41;4982176;28;20664;-79
2020/12/11 02:14:50;;;;;;;1.50;0.30;;;;;;;3.67;100.00;99896.91;4964670;28;20453;-76
2020/12/11 02:17:15;;;;;;;1.70;0.20;;;;;;;3.62;100.00;99899.75;4967750;28;20986;-77
2020/12/11 02:19:41;;;;;;;2.23;0.40;;;;;;;3.41;100.00;99894.47;4965677;28;20247;-78
2020/12/11 02:22:06;;;;;;;3.97;0.77;;;;;;;3.27;100.00;99898.50;4980215;28;20218;-76
2020/12/11 02:24:33;;;;;;;2.17;0.33;;;;;;;3.22;100.00;99896.81;4966788;28;20222;-77
2020/12/11 02:27:00;;;;;;;3.83;0.60;;;;;;;3.47;100.00;99898.50;4967450;28;20204;-77
2020/12/11 02:29:27;;;;;;;2.60;0.57;;;;;;;3.47;100.00;99890.50;4966570;28;20448;-78
2020/12/11 02:31:54;;;;;;;1.60;0.30;;;;;;;3.41;100.00;99883.03;4982103;28;20532;-78
2020/12/11 02:34:20;;;;;;;1.40;0.20;;;;;;;3.55;100.00;99879.00;4961378;28;20481;-80
2020/12/11 02:36:46;;;;;;;2.57;0.47;;;;;;;3.53;100.00;99877.78;4945472;28;20448;-76
2020/12/11 02:39:12;;;;;;;2.67;0.70;;;;;;;3.57;100.00;99862.72;4962113;28;20473;-78
2020/12/11 02:41:38;;;;;;;5.07;0.97;;;;;;;3.41;100.00;99862.53;4970908;28;20628;-77
2020/12/11 02:44:04;;;;;;;3.50;0.50;;;;;;;3.40;100.00;99857.56;4971887;28;20519;-78
2020/12/11 02:46:30;;;;;;;2.93;0.60;;;;;;;3.42;100.00;99853.47;4973586;28;20204;-78
2020/12/11 02:48:55;;;;;;;1.50;0.20;;;;;;;3.48;100.00;99849.47;5013819;23;20229;-77
2020/12/11 02:51:21;;;;;;;2.07;0.50;;;;;;;3.45;100.00;99852.03;5006297;28;20825;-77
2020/12/11 02:53:50;;;;;;;1.80;0.27;;;;;;;3.42;100.00;99845.50;5009382;28;20232;-76
2020/12/11 02:56:19;;;;;;;2.40;0.43;;;;;;;3.46;100.00;99842.94;5011347;28;20789;-77
2020/12/11 02:58:45;;;;;;;2.53;0.30;;;;;;;3.35;100.00;99852.41;5008251;28;20978;-76
2020/12/11 03:01:10;;;;;;;3.30;0.77;;;;;;;3.44;100.00;99845.94;5011849;28;20443;-79
2020/12/11 03:03:36;;;;;;;1.90;0.30;;;;;;;3.50;100.00;99847.28;5007743;28;20192;-79
2020/12/11 03:06:02;;;;;;;1.67;0.20;;;;;;;3.48;100.00;99841.50;5016471;28;20177;-78
2020/12/11 03:08:27;;;;;;;2.80;0.67;;;;;;;3.42;100.00;99845.50;5012441;28;20207;-78
2020/12/11 03:10:53;;;;;;;1.60;0.17;;;;;;;3.49;100.00;99845.72;5017037;28;20237;-78
2020/12/11 03:13:18;;;;;;;2.20;0.40;;;;;;;3.43;100.00;99839.06;5021924;28;20169;-77
2020/12/11 03:15:44;;;;;;;2.00;0.27;;;;;;;3.57;100.00;99836.88;5028178;28;20176;-76
2020/12/11 03:18:09;;;;;;;1.53;0.20;;;;;;;3.34;100.00;99827.72;5031920;28;20203;-76
2020/12/11 03:20:34;;;;;;;4.77;0.40;;;;;;;3.31;100.00;99819.63;5030957;28;20180;-78
2020/12/11 03:23:00;;;;;;;4.33;0.47;;;;;;;3.35;100.00;99817.84;5019034;28;20190;-78
2020/12/11 03:25:25;;;;;;;3.23;0.83;;;;;;;3.40;100.00;99818.44;5023876;28;20176;-78
2020/12/11 03:27:51;;;;;;;1.97;0.33;;;;;;;3.48;100.00;99820.22;5011463;28;20216;-78
2020/12/11 03:30:16;;;;;;;1.87;0.27;;;;;;;3.48;100.00;99820.22;5019193;28;20354;-78
2020/12/11 03:32:42;;;;;;;3.77;0.33;;;;;;;3.50;100.00;99807.34;5012162;28;20194;-77
2020/12/11 03:35:07;;;;;;;3.90;0.27;;;;;;;3.34;100.00;99806.44;5013017;28;20180;-76
2020/12/11 03:37:33;;;;;;;2.70;0.43;;;;;;;3.30;100.00;99808.19;5011690;28;20249;-77
2020/12/11 03:39:58;;;;;;;2.63;0.40;;;;;;;3.51;100.00;99806.25;5003812;28;20571;-78
2020/12/11 03:42:24;;;;;;;1.50;0.17;;;;;;;3.53;100.00;99806.72;5005391;28;20192;-78
2020/12/11 03:44:49;;;;;;;2.43;0.50;;;;;;;3.48;100.00;99804.25;5017901;28;20190;-76
2020/12/11 03:47:15;;;;;;;2.03;0.40;;;;;;;3.44;100.00;99805.25;5009786;28;20208;-76
2020/12/11 03:49:41;;;;;;;3.03;0.60;;;;;;;3.59;100.00;99807.28;5014546;28;20235;-79
2020/12/11 03:52:06;;;;;;;1.70;0.30;;;;;;;3.48;100.00;99803.50;5025962;28;20608;-79
2020/12/11 03:54:32;;;;;;;2.70;0.40;;;;;;;3.38;100.00;99806.56;5010493;28;20188;-78
2020/12/11 03:56:57;;;;;;;2.03;0.30;;;;;;;3.54;100.00;99802.19;5014135;28;20556;-78
2020/12/11 03:59:22;;;;;;;2.90;0.30;;;;;;;3.30;100.00;99797.56;5012013;28;20243;-78
2020/12/11 04:01:48;;;;;;;2.77;0.57;;;;;;;3.35;100.00;99785.91;5016791;28;20190;-77
2020/12/11 04:04:13;;;;;;;2.73;0.67;;;;;;;3.48;100.00;99782.97;5010311;28;20206;-78
2020/12/11 04:06:39;;;;;;;1.73;0.30;;;;;;;3.36;100.00;99790.94;5027109;28;20683;-78
2020/12/11 04:09:04;;;;;;;1.70;0.30;;;;;;;3.35;100.00;99786.69;5012540;28;20243;-76
2020/12/11 04:11:30;;;;;;;2.27;0.50;;;;;;;3.27;100.00;99789.44;5009987;28;20202;-78
2020/12/11 04:13:56;;;;;;;2.80;0.40;;;;;;;3.26;100.00;99779.91;5003437;28;20189;-78
2020/12/11 04:16:21;;;;;;;1.77;0.40;;;;;;;3.35;100.00;99773.41;5006297;28;20195;-78
2020/12/11 04:18:47;;;;;;;1.50;0.17;;;;;;;3.35;100.00;99775.28;5009914;28;20300;-79
2020/12/11 04:21:14;;;;;;;3.00;0.60;;;;;;;3.36;100.00;99776.84;5021580;28;20184;-78
2020/12/11 04:23:40;;;;;;;1.97;0.43;;;;;;;3.37;100.00;99773.84;5021992;28;20257;-78
2020/12/11 04:26:06;;;;;;;3.07;0.80;;;;;;;3.51;100.00;99776.22;5010896;28;20451;-78
2020/12/11 04:28:31;;;;;;;2.97;0.40;;;;;;;3.43;100.00;99759.22;5018512;28;20469;-78
2020/12/11 04:30:57;;;;;;;2.50;0.43;;;;;;;3.24;100.00;99766.16;5010903;28;20593;-77
2020/12/11 04:33:23;;;;;;;1.93;0.47;;;;;;;3.27;100.00;99768.94;5018682;28;20187;-79
2020/12/11 04:35:48;;;;;;;2.10;0.40;;;;;;;3.32;100.00;99763.41;5013273;28;20663;-76
2020/12/11 04:38:13;;;;;;;2.10;0.30;;;;;;;3.27;100.00;99754.88;5027219;28;20294;-78
2020/12/11 04:40:39;;;;;;;2.27;0.23;;;;;;;3.37;100.00;99760.53;5023431;28;20191;-77
2020/12/11 04:43:08;;;;;;;2.10;0.30;;;;;;;3.46;100.00;99755.16;5015288;28;20183;-77
2020/12/11 04:45:37;;;;;;;2.27;0.50;;;;;;;3.44;100.00;99760.00;5019593;28;20559;-79
2020/12/11 04:48:02;;;;;;;2.20;0.37;;;;;;;3.33;100.00;99753.56;5013007;28;20984;-77
2020/12/11 04:50:28;;;;;;;2.70;0.77;;;;;;;3.28;100.00;99753.75;5000946;28;20445;-78
2020/12/11 04:52:57;;;;;;;1.50;0.13;;;;;;;3.43;100.00;99755.78;5011041;28;20667;-78
2020/12/11 04:55:22;;;;;;;3.50;0.73;;;;;;;3.50;100.00;99753.38;5010170;28;20439;-78
2020/12/11 04:57:50;;;;;;;2.07;0.50;;;;;;;3.49;100.00;99755.25;5005072;28;20889;-77
2020/12/11 05:00:19;;;;;;;3.30;0.90;;;;;;;3.47;100.00;99749.50;5009908;28;20876;-80
2020/12/11 05:02:46;;;;;;;1.90;0.50;;;;;;;3.53;100.00;99748.16;5019998;28;20838;-79
2020/12/11 05:05:13;;;;;;;3.00;0.97;;;;;;;3.44;100.00;99744.84;5008349;28;20435;-77
2020/12/11 05:07:39;;;;;;;1.83;0.20;;;;;;;3.41;100.00;99742.03;5008209;28;20436;-77
2020/12/11 05:10:06;;;;;;;5.43;0.43;;;;;;;3.38;100.00;99740.81;5004162;28;20824;-78
2020/12/11 05:12:32;;;;;;;2.00;0.33;;;;;;;3.34;100.00;99750.56;5012817;28;20477;-77
2020/12/11 05:15:09;;;;;;;2.17;0.60;;;;;;;3.47;100.00;99743.38;5013049;28;20513;-77
2020/12/11 05:17:38;;;;;;;6.97;0.70;;;;;;;3.56;100.00;99742.19;5010645;28;20443;-77
2020/12/11 05:20:05;;;;;;;2.57;0.43;;;;;;;3.54;100.00;99731.09;5014644;28;20960;-77
2020/12/11 05:22:33;;;;;;;1.87;0.27;;;;;;;3.60;100.00;99732.44;5015750;28;20455;-77
2020/12/11 05:24:59;;;;;;;2.30;0.53;;;;;;;3.41;100.00;99731.38;5012634;28;20447;-77
2020/12/11 05:27:44;;;;;;;1.40;0.20;;;;;;;3.59;100.00;99712.25;5006971;28;20870;-77
2020/12/11 05:30:10;;;;;;;1.73;0.30;;;;;;;3.59;100.00;99728.22;5013946;28;20459;-77
2020/12/11 05:32:43;;;;;;;2.47;0.23;;;;;;;3.49;100.00;99728.66;5012648;28;20473;-77
2020/12/11 05:35:22;;;;;;;2.33;0.47;;;;;;;3.53;100.00;99729.53;5017286;28;20604;-77
2020/12/11 05:37:49;;;;;;;3.87;0.60;;;;;;;3.48;100.00;99727.06;5008486;28;20450;-77
2020/12/11 05:40:43;;;;;;;2.07;0.50;;;;;;;3.41;100.00;99726.06;5014688;28;20856;-77
2020/12/11 05:43:16;;;;;;;1.87;0.30;;;;;;;3.32;100.00;99731.50;4945877;28;20450;-77
2020/12/11 05:45:50;;;;;;;2.40;0.50;;;;;;;3.21;100.00;99714.41;4952132;28;20453;-77
2020/12/11 05:48:16;;;;;;;2.00;0.40;;;;;;;3.39;100.00;99714.97;4928739;28;624190;-76
2020/12/11 05:50:42;;;;;;;2.63;0.33;;;;;;;3.14;100.00;99716.81;4949832;28;21124;-77
2020/12/11 05:53:07;;;;;;;2.60;0.47;;;;;;;3.09;100.00;99713.59;4942198;28;20461;-77
2020/12/11 05:55:33;;;;;;;1.60;0.20;;;;;;;3.24;100.00;99708.41;4944710;28;20970;-77
2020/12/11 05:57:59;;;;;;;2.47;0.60;;;;;;;3.29;100.00;99708.19;4956418;28;20196;-77
2020/12/11 06:00:26;;;;;;;3.83;0.80;;;;;;;3.39;100.00;99709.66;4946316;28;20229;-76
2020/12/11 06:02:55;;;;;;;2.70;0.50;;;;;;;3.28;100.00;99695.25;4950834;28;20979;-77
2020/12/11 06:05:23;;;;;;;2.20;0.40;;;;;;;3.31;100.00;99695.34;4943572;28;20544;-77
2020/12/11 06:08:10;;;;;;;3.23;0.30;;;;;;;3.45;100.00;99693.16;4937097;28;20857;-77
2020/12/11 06:10:38;;;;;;;1.87;0.23;;;;;;;3.45;100.00;99709.13;4894226;29;20474;-76
2020/12/11 06:13:04;;;;;;;1.60;0.20;;;;;;;3.47;100.00;99696.28;4897763;29;20448;-77
2020/12/11 06:15:36;;;;;;;3.20;0.60;;;;;;;3.48;100.00;99700.47;4892687;29;20543;-78
2020/12/11 06:18:15;;;;;;;4.27;0.60;;;;;;;3.30;100.00;99693.81;4899486;29;20227;-78
2020/12/11 06:21:02;;;;;;;2.20;0.53;;;;;;;3.27;100.00;99701.69;4937571;28;20446;-77
2020/12/11 06:23:29;;;;;;;1.93;0.33;;;;;;;3.29;100.00;99712.75;4871612;29;20466;-78
2020/12/11 06:26:02;;;;;;;1.80;0.63;;;;;;;3.30;100.00;99711.66;4875762;29;20469;-76
2020/12/11 06:28:58;;;;;;;1.93;0.47;;;;;;;3.35;100.00;99701.56;4874538;29;20530;-77
2020/12/11 06:31:44;;;;;;;1.40;0.10;;;;;;;3.28;100.00;99704.00;4854894;29;20527;-78
2020/12/11 06:34:20;;;;;;;2.63;0.63;;;;;;;3.18;100.00;99700.97;4776688;29;20479;-77
2020/12/11 06:36:45;;;;;;;4.93;0.77;;;;;;;3.14;100.00;99703.50;4801304;29;20946;-78
2020/12/11 06:39:11;;;;;;;4.43;0.93;;;;;;;3.22;100.00;99700.00;4792364;29;20500;-78
2020/12/11 06:41:38;;;;;;;3.63;1.00;;;;;;;3.05;100.00;99697.50;4792726;29;20639;-77
2020/12/11 06:44:09;;;;;;;4.23;0.77;;;;;;;3.19;100.00;99703.31;4795614;29;20371;-78
2020/12/11 06:46:34;;;;;;;3.10;0.57;;;;;;;3.11;100.00;99712.16;4801489;29;20491;-75
2020/12/11 06:49:17;;;;;;;1.47;0.10;;;;;;;3.01;100.00;99701.94;4816528;29;20496;-77
2020/12/11 06:51:45;;;;;;;1.87;0.23;;;;;;;2.93;100.00;99696.69;4818495;29;20217;-76
2020/12/11 06:54:11;;;;;;;2.83;0.60;;;;;;;3.11;100.00;99698.09;4813519;29;20551;-76
2020/12/11 06:56:44;;;;;;;1.70;0.20;;;;;;;3.14;100.00;99698.19;4822440;29;20439;-77
2020/12/11 06:59:24;;;;;;;3.80;0.90;;;;;;;3.08;100.00;99694.19;4830833;29;20749;-77
2020/12/11 07:01:51;;;;;;;2.43;0.50;;;;;;;3.30;100.00;99696.47;4887743;29;20464;-77
2020/12/11 07:04:17;;;;;;;3.00;0.93;;;;;;;3.19;100.00;99686.59;4890356;29;20469;-77
2020/12/11 07:07:00;;;;;;;4.47;0.90;;;;;;;3.05;100.00;99684.22;4891968;29;20501;-77
2020/12/11 07:09:25;;;;;;;3.13;0.40;;;;;;;3.08;100.00;99682.78;4920925;29;20242;-77
2020/12/11 07:11:51;;;;;;;1.60;0.40;;;;;;;3.17;100.00;99689.56;4988549;28;20505;-76
2020/12/11 07:14:16;;;;;;;1.67;0.27;;;;;;;3.17;100.00;99688.78;5010875;28;20191;-78
2020/12/11 07:16:43;;;;;;;3.40;0.50;;;;;;;3.17;100.00;99686.91;5003424;28;20191;-76
2020/12/11 07:19:10;;;;;;;2.10;0.63;;;;;;;3.26;100.00;99684.94;5000454;28;20201;-75
2020/12/11 07:21:39;;;;;;;2.10;0.50;;;;;;;3.40;100.00;99681.97;5010391;28;20532;-77
2020/12/11 07:24:06;;;;;;;4.10;0.70;;;;;;;3.30;100.00;99675.19;5012566;28;20435;-76
2020/12/11 07:26:32;;;;;;;1.70;0.47;;;;;;;3.26;100.00;99676.16;5006497;28;20486;-77
2020/12/11 07:29:18;;;;;;;3.63;0.50;;;;;;;3.44;100.00;99674.88;5008861;28;20952;-77
2020/12/11 07:31:46;;;;;;;2.57;0.70;;;;;;;3.20;100.00;99672.94;5005359;28;20198;-77
2020/12/11 07:34:28;;;;;;;2.80;0.40;;;;;;;3.36;100.00;99670.44;5004421;28;20454;-76
2020/12/11 07:36:55;;;;;;;2.30;0.50;;;;;;;3.48;100.00;99673.88;5006027;28;20450;-76
2020/12/11 07:39:28;;;;;;;2.23;0.30;;;;;;;3.50;100.00;99671.66;5013111;28;20519;-77
2020/12/11 07:41:55;;;;;;;1.30;0.10;;;;;;;3.40;100.00;99655.34;5029362;28;20446;-77
2020/12/11 07:44:24;;;;;;;1.50;0.10;;;;;;;3.09;100.00;99661.19;5018413;28;20474;-77
2020/12/11 07:46:50;;;;;;;2.13;0.33;;;;;;;3.32;100.00;99651.69;5016672;28;20466;-76
2020/12/11 07:49:16;;;;;;;3.50;0.83;;;;;;;3.29;100.00;99649.69;4995170;28;20487;-75
2020/12/11 07:51:45;;;;;;;2.70;0.50;;;;;;;3.31;100.00;99650.13;5018918;28;20927;-76
2020/12/11 07:54:12;;;;;;;1.93;0.20;;;;;;;3.06;100.00;99647.78;5014346;28;20215;-76
2020/12/11 07:56:37;;;;;;;4.17;0.43;;;;;;;3.31;100.00;99650.13;5008834;28;20502;-76
2020/12/11 07:59:15;;;;;;;4.20;0.67;;;;;;;3.23;100.00;99658.97;5007429;28;20468;-77
2020/12/11 08:01:49;;;;;;;1.70;0.30;;;;;;;3.38;100.00;99649.59;5013731;28;20191;-77
2020/12/11 08:04:14;;;;;;;2.10;0.30;;;;;;;3.25;100.00;99651.44;5026294;28;20445;-77
2020/12/11 08:06:40;;;;;;;4.60;0.63;;;;;;;3.16;100.00;99642.00;5007253;28;20454;-76
2020/12/11 08:09:12;;;;;;;3.40;0.60;;;;;;;3.21;100.00;99639.94;5018667;28;20200;-75
2020/12/11 08:11:42;;;;;;;4.10;0.90;;;;;;;3.26;100.00;99642.38;5019674;28;20586;-76
2020/12/11 08:14:08;;;;;;;2.00;0.60;;;;;;;3.28;100.00;99629.53;5012152;28;20453;-77
2020/12/11 08:16:34;;;;;;;3.60;0.60;;;;;;;3.33;100.00;99631.94;5023454;28;20802;-76
2020/12/11 08:19:01;;;;;;;1.73;0.20;;;;;;;3.40;100.00;99621.56;5015946;28;20822;-77
2020/12/11 08:21:31;;;;;;;2.23;0.73;;;;;;;3.09;100.00;99629.28;5015918;28;20196;-77
2020/12/11 08:23:57;;;;;;;2.43;0.63;;;;;;;3.30;100.00;99627.31;5011883;28;20957;-76
2020/12/11 08:26:23;;;;;;;1.97;0.50;;;;;;;3.17;100.00;99633.72;5014640;28;20433;-76
2020/12/11 08:28:50;;;;;;;1.83;0.20;;;;;;;3.08;100.00;99634.94;5004351;28;20515;-76
2020/12/11 08:31:27;;;;;;;2.30;0.50;;;;;;;3.21;100.00;99626.66;5004219;28;20435;-76
2020/12/11 08:34:03;;;;;;;3.13;0.40;;;;;;;2.97;100.00;99620.50;5019183;28;20450;-77
2020/12/11 08:36:30;;;;;;;3.10;0.60;;;;;;;3.14;100.00;99636.25;5009892;28;20438;-76
2020/12/11 08:39:14;;;;;;;2.83;0.67;;;;;;;3.08;100.00;99617.06;5006785;28;20972;-77
2020/12/11 08:41:50;;;;;;;4.03;0.73;;;;;;;2.98;100.00;99614.84;5019869;28;20439;-77
2020/12/11 08:44:54;;;;;;;1.37;0.17;;;;;;;3.12;100.00;99617.19;5009422;28;20446;-77
2020/12/11 08:50:00;;;;;;;1.70;0.27;;;;;;;3.18;100.00;99607.88;5005447;28;20466;-74
2020/12/11 08:52:26;;;;;;;3.20;0.70;;;;;;;3.04;100.00;99599.47;5024383;28;20447;-74
2020/12/11 08:54:53;;;;;;;3.87;1.30;;;;;;;3.26;100.00;99596.38;5015249;28;20460;-77
2020/12/11 08:57:18;;;;;;;3.00;0.83;;;;;;;3.43;100.00;99598.81;5023236;28;20202;-76
2020/12/11 08:59:44;;;;;;;1.60;0.30;;;;;;;3.32;100.00;99601.16;5014936;28;20479;-77
2020/12/11 09:02:09;;;;;;;1.80;0.40;;;;;;;3.52;100.00;99592.25;5017699;28;20205;-76
2020/12/11 09:04:35;;;;;;;2.90;0.57;;;;;;;3.44;100.00;99590.53;5011317;28;20218;-75
2020/12/11 09:07:00;;;;;;;2.00;0.30;;;;;;;3.38;100.00;99591.84;5016966;28;20247;-75
2020/12/11 09:09:26;;;;;;;3.70;0.50;;;;;;;3.48;100.00;99578.06;5016424;28;20246;-77
2020/12/11 09:11:51;;;;;;;3.00;0.60;;;;;;;3.41;100.00;99585.84;5015162;28;20192;-76
2020/12/11 09:14:17;;;;;;;6.03;0.67;;;;;;;3.40;100.00;99584.31;5017362;28;20184;-76
2020/12/11 09:16:42;;;;;;;2.07;0.33;;;;;;;3.33;100.00;99576.09;5017484;28;20180;-75
2020/12/11 09:19:09;;;;;;;2.57;0.37;;;;;;;3.27;100.00;99587.31;5013514;28;20281;-76
2020/12/11 09:21:35;;;;;;;2.50;0.30;;;;;;;3.18;100.00;99582.06;5004912;28;20193;-76
2020/12/11 09:24:00;;;;;;;2.80;0.30;;;;;;;3.35;100.00;99584.53;5004834;28;20450;-74
2020/12/11 09:26:28;;;;;;;1.90;0.30;;;;;;;3.43;100.00;99594.28;4999231;28;20277;-76
2020/12/11 09:29:03;;;;;;;3.20;0.40;;;;;;;3.37;100.00;99587.63;4997694;28;20604;-76
2020/12/11 09:31:29;;;;;;;2.40;0.70;;;;;;;3.15;100.00;99581.97;4995458;28;20874;-77
2020/12/11 09:33:56;;;;;;;3.90;1.03;;;;;;;3.00;100.00;99570.09;5006331;28;20560;-76
2020/12/11 09:36:24;;;;;;;1.50;0.33;;;;;;;3.20;100.00;99576.41;5002704;28;20454;-76
2020/12/11 09:38:50;;;;;;;2.17;0.30;;;;;;;3.18;100.00;99554.69;5002639;28;20471;-75
2020/12/11 09:41:18;;;;;;;2.30;0.53;;;;;;;2.99;100.00;99563.25;5006412;28;20457;-77
2020/12/11 09:46:43;;;;;;;3.93;0.47;;;;;;;3.34;100.00;99552.94;5002432;28;20448;-76
2020/12/11 09:49:56;;;;;;;2.30;0.50;;;;;;;3.32;100.00;99555.16;5006139;28;20219;-77
2020/12/11 09:52:24;;;;;;;2.83;0.43;;;;;;;3.27;100.00;99566.03;4988513;28;21011;-76
2020/12/11 09:54:50;;;;;;;1.90;0.30;;;;;;;3.22;100.00;99551.06;4998042;28;20471;-76
2020/12/11 09:57:15;;;;;;;2.40;0.70;;;;;;;3.35;100.00;99555.25;4999540;28;20467;-76
2020/12/11 09:59:51;;;;;;;2.83;0.70;;;;;;;3.51;100.00;99560.69;4995499;28;20633;-76
2020/12/11 10:02:35;;;;;;;4.77;0.80;;;;;;;3.42;100.00;99557.38;5000340;28;20188;-75
2020/12/11 10:05:01;;;;;;;2.90;0.70;;;;;;;3.61;100.00;99555.69;5006445;28;20497;-76
2020/12/11 10:07:27;;;;;;;2.43;0.57;;;;;;;3.61;100.00;99558.34;5008955;28;21006;-76
2020/12/11 10:09:52;;;;;;;4.10;0.70;;;;;;;3.61;100.00;99563.66;4998284;28;20663;-77
2020/12/11 10:12:21;;;;;;;2.50;0.37;;;;;;;3.49;100.00;99544.28;5007467;28;20195;-77
2020/12/11 10:14:52;;;;;;;3.27;0.90;;;;;;;3.43;100.00;99557.03;5006261;28;20212;-76
2020/12/11 10:17:18;;;;;;;1.70;0.40;;;;;;;3.38;100.00;99554.59;5016917;28;20510;-75
2020/12/11 10:19:43;;;;;;;2.53;0.67;;;;;;;3.26;100.00;99554.59;5001507;28;20474;-76
2020/12/11 10:22:08;;;;;;;6.00;0.73;;;;;;;3.45;100.00;99562.00;5004580;28;20248;-76
2020/12/11 10:24:34;;;;;;;3.43;1.03;;;;;;;3.53;100.00;99561.13;5008261;28;20190;-76
2020/12/11 10:26:59;;;;;;;2.53;0.40;;;;;;;3.54;100.00;99552.78;5020119;28;20172;-76
2020/12/11 10:29:25;;;;;;;4.73;0.80;;;;;;;3.47;100.00;99551.81;5009568;28;20206;-77
2020/12/11 10:31:50;;;;;;;1.80;0.60;;;;;;;3.39;100.00;99553.47;5006032;28;20177;-76
2020/12/11 10:34:16;;;;;;;2.37;0.40;;;;;;;3.25;100.00;99546.97;5004332;28;20197;-77
2020/12/11 10:36:43;;;;;;;1.70;0.30;;;;;;;3.07;100.00;99530.47;5008231;28;20289;-76
2020/12/11 10:39:09;;;;;;;2.53;0.50;;;;;;;3.27;100.00;99524.22;5008267;28;20570;-76
2020/12/11 10:41:35;;;;;;;2.00;0.40;;;;;;;3.41;100.00;99522.00;5006695;28;20783;-77
2020/12/11 10:44:01;;;;;;;2.03;0.53;;;;;;;3.64;100.00;99519.63;5016317;28;20428;-76
2020/12/11 10:46:27;;;;;;;3.43;0.60;;;;;;;3.36;100.00;99524.91;5013388;28;20431;-77
2020/12/11 10:48:52;;;;;;;1.90;0.30;;;;;;;3.57;100.00;99517.53;5011572;28;20703;-76
2020/12/11 10:51:18;;;;;;;2.10;0.40;;;;;;;3.51;100.00;99521.53;5010229;28;20173;-77
2020/12/11 10:53:45;;;;;;;2.37;0.33;;;;;;;3.44;100.00;99516.03;5018378;28;20199;-75
2020/12/11 10:56:12;;;;;;;2.10;0.40;;;;;;;3.48;100.00;99510.81;5014525;28;20444;-76
2020/12/11 10:58:38;;;;;;;3.00;0.50;;;;;;;3.40;100.00;99509.03;5017281;28;20480;-76
2020/12/11 11:01:06;;;;;;;2.57;0.83;;;;;;;3.48;100.00;99495.59;5016296;28;20434;-76
2020/12/11 11:03:32;;;;;;;2.87;0.73;;;;;;;3.58;100.00;99495.13;5019552;28;20473;-77
2020/12/11 11:06:03;;;;;;;2.37;0.77;;;;;;;3.65;100.00;99489.25;5013444;28;20457;-76
2020/12/11 11:08:49;;;;;;;1.93;0.60;;;;;;;3.56;100.00;99492.03;5003573;28;20459;-76
2020/12/11 11:11:22;;;;;;;2.00;0.50;;;;;;;3.50;100.00;99482.72;5002960;28;20553;-75
2020/12/11 11:19:17;;;;;;;2.07;0.33;;;;;;;3.38;100.00;99482.00;5006421;28;20497;-76
2020/12/11 11:22:06;;;;;;;3.03;0.50;;;;;;;3.24;100.00;99486.88;5004554;28;20473;-76
2020/12/11 11:29:35;;;;;;;2.20;0.53;;;;;;;3.28;100.00;99471.81;5018052;28;20489;-76
2020/12/11 11:32:00;;;;;;;2.53;0.50;;;;;;;3.34;100.00;99473.13;5015982;28;20538;-76
2020/12/11 11:34:26;;;;;;;2.37;0.50;;;;;;;3.39;100.00;99464.91;5023536;28;20552;-77
2020/12/11 11:36:52;;;;;;;2.87;0.50;;;;;;;3.42;100.00;99459.72;5021578;28;20207;-76
2020/12/11 11:39:19;;;;;;;2.47;0.30;;;;;;;3.45;100.00;99459.03;5011023;28;20230;-77
2020/12/11 11:41:48;;;;;;;1.73;0.50;;;;;;;3.42;100.00;99454.41;5016211;28;20442;-76
2020/12/11 11:46:45;;;;;;;1.80;0.33;;;;;;;3.12;100.00;99461.09;5021919;28;20449;-76
2020/12/11 11:49:12;;;;;;;1.50;0.20;;;;;;;3.36;100.00;99442.44;5012250;28;20471;-77
2020/12/11 11:51:46;;;;;;;2.27;0.63;;;;;;;3.52;100.00;99440.59;5011003;28;20592;-77
2020/12/11 11:54:12;;;;;;;4.40;0.87;;;;;;;3.31;100.00;99447.97;5009589;28;20537;-76
2020/12/11 11:56:37;;;;;;;1.57;0.20;;;;;;;3.38;100.00;99437.56;5016191;28;20534;-77